createdAt,value
2018-09-27T00:00:17.674Z,102535.81
2018-09-27T00:02:47.785Z,102530.64
2018-09-27T00:05:17.928Z,102541.52
2018-09-27T00:07:48.063Z,102532.34
2018-09-27T00:10:17.886Z,102540.20
2018-09-27T00:12:47.182Z,102538.87
2018-09-27T00:15:16.715Z,102531.64
2018-09-27T00:17:46.278Z,102533.16
2018-09-27T00:20:16.381Z,102539.27
2018-09-27T00:22:46.131Z,102536.48
2018-09-27T00:25:16.463Z,102538.27
2018-09-27T00:27:45.776Z,102533.26
2018-09-27T00:30:15.203Z,102534.02
2018-09-27T00:32:44.870Z,102524.91
2018-09-27T00:35:14.427Z,102526.48
2018-09-27T00:37:43.774Z,102526.99
2018-09-27T00:40:13.278Z,102529.26
2018-09-27T00:42:43.045Z,102520.19
2018-09-27T00:45:12.846Z,102520.25
2018-09-27T00:47:42.810Z,102515.14
2018-09-27T00:50:12.815Z,102512.39
2018-09-27T00:52:42.152Z,102510.94
2018-09-27T00:55:11.944Z,102508.67
2018-09-27T00:57:41.975Z,102505.20
2018-09-27T01:00:11.566Z,102502.94
2018-09-27T01:02:40.783Z,102494.56
2018-09-27T01:05:10.330Z,102493.77
2018-09-27T01:07:40.485Z,102498.49
2018-09-27T01:10:09.929Z,102502.77
2018-09-27T01:12:39.895Z,102496.16
2018-09-27T01:15:10.116Z,102493.94
2018-09-27T01:17:39.970Z,102484.30
2018-09-27T01:20:09.430Z,102488.75
2018-09-27T01:22:39.736Z,102491.54
2018-09-27T01:25:09.651Z,102484.30
2018-09-27T01:27:39.112Z,102476.00
2018-09-27T01:30:09.083Z,102478.81
2018-09-27T01:32:38.532Z,102482.53
2018-09-27T01:35:08.567Z,102477.33
2018-09-27T01:37:37.971Z,102482.61
2018-09-27T01:40:07.475Z,102479.58
2018-09-27T01:42:37.274Z,102483.84
2018-09-27T01:45:07.504Z,102484.01
2018-09-27T01:47:37.431Z,102478.64
2018-09-27T01:50:07.709Z,102473.30
2018-09-27T01:52:37.007Z,102474.92
2018-09-27T01:55:06.609Z,102459.39
2018-09-27T01:57:36.045Z,102458.70
2018-09-27T02:00:05.596Z,102468.08
2018-09-27T02:02:35.056Z,102472.53
2018-09-27T02:05:11.030Z,102469.95
2018-09-27T02:07:41.087Z,102467.63
2018-09-27T02:10:10.412Z,102465.05
2018-09-27T02:12:39.881Z,102465.82
2018-09-27T02:15:09.130Z,102473.08
2018-09-27T02:17:38.644Z,102463.59
2018-09-27T02:20:08.165Z,102464.15
2018-09-27T02:22:37.656Z,102466.86
2018-09-27T02:25:07.592Z,102465.84
2018-09-27T02:27:37.076Z,102465.39
2018-09-27T02:30:07.004Z,102462.59
2018-09-27T02:32:36.746Z,102470.96
2018-09-27T02:35:06.278Z,102464.66
2018-09-27T02:37:35.694Z,102463.23
2018-09-27T02:40:05.227Z,102467.03
2018-09-27T02:42:34.898Z,102461.73
2018-09-27T02:45:04.468Z,102465.16
2018-09-27T02:47:33.915Z,102459.78
2018-09-27T02:50:03.430Z,102453.30
2018-09-27T02:52:33.276Z,102457.50
2018-09-27T02:55:03.178Z,102463.41
2018-09-27T02:57:32.566Z,102457.57
2018-09-27T03:00:02.511Z,102462.99
2018-09-27T03:02:32.643Z,102453.99
2018-09-27T03:05:02.095Z,102453.69
2018-09-27T03:07:32.168Z,102453.91
2018-09-27T03:10:01.956Z,102457.72
2018-09-27T03:12:32.331Z,102443.69
2018-09-27T03:15:02.246Z,102439.53
2018-09-27T03:17:32.020Z,102440.11
2018-09-27T03:20:01.236Z,102443.30
2018-09-27T03:22:31.263Z,102430.56
2018-09-27T03:25:00.671Z,102430.63
2018-09-27T03:27:31.221Z,102432.80
2018-09-27T03:30:00.679Z,102432.33
2018-09-27T03:32:30.739Z,102430.77
2018-09-27T03:35:00.518Z,102424.34
2018-09-27T03:37:29.966Z,102423.84
2018-09-27T03:40:00.185Z,102425.64
2018-09-27T03:42:30.823Z,102430.14
2018-09-27T03:45:00.501Z,102421.14
2018-09-27T03:47:29.848Z,102419.14
2018-09-27T03:49:59.765Z,102417.97
2018-09-27T03:52:29.336Z,102416.59
2018-09-27T03:54:58.954Z,102417.20
2018-09-27T03:57:28.254Z,102410.28
2018-09-27T03:59:57.738Z,102407.59
2018-09-27T04:02:27.492Z,102407.17
2018-09-27T04:04:57.043Z,102402.10
2018-09-27T04:07:27.218Z,102411.42
2018-09-27T04:09:57.377Z,102400.05
2018-09-27T04:12:26.977Z,102400.83
2018-09-27T04:14:56.687Z,102396.80
2018-09-27T04:17:27.192Z,102394.12
2018-09-27T04:19:57.278Z,102404.05
2018-09-27T04:22:26.823Z,102400.73
2018-09-27T04:24:56.587Z,102393.66
2018-09-27T04:27:26.776Z,102400.42
2018-09-27T04:29:56.153Z,102398.34
2018-09-27T04:32:25.686Z,102397.89
2018-09-27T04:34:55.175Z,102394.14
2018-09-27T04:37:24.894Z,102394.77
2018-09-27T04:39:54.942Z,102396.17
2018-09-27T04:42:24.474Z,102394.06
2018-09-27T04:44:53.676Z,102387.02
2018-09-27T04:47:23.728Z,102383.22
2018-09-27T04:49:53.467Z,102387.66
2018-09-27T04:52:23.230Z,102384.23
2018-09-27T04:54:53.055Z,102393.58
2018-09-27T04:57:22.509Z,102386.67
2018-09-27T04:59:52.071Z,102386.69
2018-09-27T05:02:22.402Z,102397.33
2018-09-27T05:04:52.067Z,102389.87
2018-09-27T05:07:21.596Z,102390.95
2018-09-27T05:09:51.472Z,102389.60
2018-09-27T05:12:20.979Z,102393.01
2018-09-27T05:14:50.953Z,102391.23
2018-09-27T05:17:20.407Z,102390.38
2018-09-27T05:19:50.387Z,102388.03
2018-09-27T05:22:19.835Z,102384.65
2018-09-27T05:24:49.340Z,102385.89
2018-09-27T05:27:18.872Z,102378.47
2018-09-27T05:29:48.364Z,102380.00
2018-09-27T05:32:17.659Z,102374.96
2018-09-27T05:34:47.819Z,102369.01
2018-09-27T05:37:17.879Z,102367.69
2018-09-27T05:39:47.391Z,102367.98
2018-09-27T05:42:17.327Z,102371.16
2018-09-27T05:44:46.600Z,102359.48
2018-09-27T05:47:16.711Z,102366.60
2018-09-27T05:49:46.289Z,102362.64
2018-09-27T05:52:16.265Z,102364.52
2018-09-27T05:54:46.513Z,102364.25
2018-09-27T05:57:16.378Z,102361.95
2018-09-27T05:59:45.904Z,102357.98
2018-09-27T06:02:15.427Z,102362.44
2018-09-27T06:04:45.478Z,102298.03
2018-09-27T06:07:15.028Z,102361.61
2018-09-27T06:09:44.743Z,102354.28
2018-09-27T06:12:14.424Z,102353.97
2018-09-27T06:14:44.998Z,102359.45
2018-09-27T06:17:15.309Z,102355.14
2018-09-27T06:19:45.681Z,102347.63
2018-09-27T06:22:15.761Z,102344.30
2018-09-27T06:24:45.890Z,102340.41
2018-09-27T06:27:16.262Z,102338.80
2018-09-27T06:29:45.610Z,102335.97
2018-09-27T06:32:15.591Z,102337.36
2018-09-27T06:34:45.536Z,102341.23
2018-09-27T06:37:21.407Z,102345.02
2018-09-27T06:39:50.847Z,102349.81
2018-09-27T06:42:20.151Z,102346.72
2018-09-27T06:44:50.197Z,102347.09
2018-09-27T06:47:19.549Z,102344.28
2018-09-27T06:49:49.261Z,102354.05
2018-09-27T06:52:18.869Z,102339.94
2018-09-27T06:54:49.422Z,102341.78
2018-09-27T06:57:19.533Z,102338.77
2018-09-27T06:59:49.751Z,102342.92
2018-09-27T07:02:19.344Z,102341.45
2018-09-27T07:04:49.046Z,102340.34
2018-09-27T07:07:18.288Z,102343.24
2018-09-27T07:09:47.654Z,102347.46
2018-09-27T07:12:17.013Z,102340.56
2018-09-27T07:14:46.183Z,102346.92
2018-09-27T07:17:16.159Z,102341.13
2018-09-27T07:19:45.385Z,102334.19
2018-09-27T07:22:14.934Z,102328.39
2018-09-27T07:24:44.451Z,102332.94
2018-09-27T07:27:15.099Z,102322.61
2018-09-27T07:29:45.036Z,102317.09
2018-09-27T07:32:14.355Z,102315.34
2018-09-27T07:34:43.874Z,102320.06
2018-09-27T07:37:13.360Z,102321.92
2018-09-27T07:39:43.200Z,102328.72
2018-09-27T07:42:12.766Z,102321.72
2018-09-27T07:44:42.401Z,102317.77
2018-09-27T07:47:11.806Z,102310.33
2018-09-27T07:49:41.299Z,102311.91
2018-09-27T07:52:11.019Z,102307.86
2018-09-27T07:54:40.545Z,102310.58
2018-09-27T07:57:10.164Z,102314.55
2018-09-27T07:59:39.910Z,102296.67
2018-09-27T08:02:09.317Z,102300.06
2018-09-27T08:04:38.770Z,102291.70
2018-09-27T08:07:08.319Z,102293.16
2018-09-27T08:09:37.750Z,102292.77
2018-09-27T08:12:08.246Z,102288.50
2018-09-27T08:14:37.609Z,102286.59
2018-09-27T08:17:07.386Z,102282.11
2018-09-27T08:19:37.253Z,102278.30
2018-09-27T08:22:07.266Z,102284.70
2018-09-27T08:24:36.949Z,102283.09
2018-09-27T08:27:06.775Z,102277.55
2018-09-27T08:29:35.996Z,102275.91
2018-09-27T08:32:05.753Z,102270.08
2018-09-27T08:34:36.071Z,102261.70
2018-09-27T08:37:05.385Z,102258.14
2018-09-27T08:39:34.856Z,102253.10
2018-09-27T08:42:04.379Z,102245.74
2018-09-27T08:44:34.156Z,102244.72
2018-09-27T08:47:04.230Z,102246.48
2018-09-27T08:49:33.727Z,102240.22
2018-09-27T08:52:03.052Z,102236.13
2018-09-27T08:54:33.010Z,102232.14
2018-09-27T08:57:02.660Z,102227.16
2018-09-27T08:59:32.362Z,102226.28
2018-09-27T09:02:01.668Z,102225.31
2018-09-27T09:04:31.376Z,102220.67
2018-09-27T09:07:00.924Z,102218.23
2018-09-27T09:09:30.215Z,102219.69
2018-09-27T09:12:00.544Z,102215.78
2018-09-27T09:14:30.623Z,102210.56
2018-09-27T09:17:00.771Z,102208.66
2018-09-27T09:19:31.118Z,102210.26
2018-09-27T09:22:01.200Z,102204.48
2018-09-27T09:24:30.887Z,102207.80
2018-09-27T09:27:00.612Z,102199.69
2018-09-27T09:29:30.217Z,102184.27
2018-09-27T09:31:59.667Z,102183.44
2018-09-27T09:34:28.927Z,102176.92
2018-09-27T09:36:58.761Z,102171.15
2018-09-27T09:39:28.633Z,102176.11
2018-09-27T09:41:58.605Z,102166.22
2018-09-27T09:44:27.807Z,102154.14
2018-09-27T09:46:57.303Z,102154.98
2018-09-27T09:49:26.804Z,102149.19
2018-09-27T09:51:56.931Z,102146.35
2018-09-27T09:54:27.677Z,102139.52
2018-09-27T09:56:57.404Z,102140.98
2018-09-27T09:59:27.459Z,102125.49
2018-09-27T10:01:57.812Z,102118.45
2018-09-27T10:04:27.699Z,102119.39
2018-09-27T10:06:57.590Z,102113.64
2018-09-27T10:09:27.135Z,102110.93
2018-09-27T10:11:56.842Z,102116.88
2018-09-27T10:14:26.296Z,102116.17
2018-09-27T10:16:55.883Z,102117.94
2018-09-27T10:19:26.212Z,102112.89
2018-09-27T10:21:55.519Z,102119.78
2018-09-27T10:24:25.131Z,102113.58
2018-09-27T10:26:54.874Z,102118.29
2018-09-27T10:29:24.801Z,102117.95
2018-09-27T10:31:54.542Z,102110.81
2018-09-27T10:34:24.453Z,102102.58
2018-09-27T10:36:54.391Z,102096.53
2018-09-27T10:39:23.629Z,102090.20
2018-09-27T10:41:53.152Z,102091.03
2018-09-27T10:44:22.628Z,102092.51
2018-09-27T10:46:52.347Z,102074.64
2018-09-27T10:49:21.574Z,102082.14
2018-09-27T10:51:50.982Z,102069.44
2018-09-27T10:54:20.637Z,102071.36
2018-09-27T10:56:50.210Z,102065.99
2018-09-27T10:59:19.708Z,102056.30
2018-09-27T11:01:49.483Z,102053.45
2018-09-27T11:04:18.879Z,102050.71
2018-09-27T11:06:50.257Z,102038.73
2018-09-27T11:09:20.803Z,102032.76
2018-09-27T11:11:50.446Z,102024.03
2018-09-27T11:14:19.966Z,102019.97
2018-09-27T11:16:50.020Z,102023.26
2018-09-27T11:19:19.392Z,102011.91
2018-09-27T11:21:49.633Z,102006.63
2018-09-27T11:24:19.185Z,102002.52
2018-09-27T11:26:48.726Z,102005.27
2018-09-27T11:29:23.873Z,101994.56
2018-09-27T11:31:58.377Z,101995.44
2018-09-27T11:34:27.608Z,101987.81
2018-09-27T11:36:57.421Z,101980.90
2018-09-27T11:39:27.743Z,101981.23
2018-09-27T11:41:57.295Z,101969.36
2018-09-27T11:44:27.181Z,101957.45
2018-09-27T11:46:56.425Z,101954.28
2018-09-27T11:49:26.068Z,101943.89
2018-09-27T11:51:55.711Z,101938.08
2018-09-27T11:54:25.443Z,101931.92
2018-09-27T11:56:55.262Z,101921.40
2018-09-27T11:59:25.166Z,101908.55
2018-09-27T12:01:54.679Z,101900.46
2018-09-27T12:04:24.634Z,101906.33
2018-09-27T12:06:54.300Z,101899.88
2018-09-27T12:09:24.196Z,101890.31
2018-09-27T12:11:54.105Z,101893.86
2018-09-27T12:14:24.500Z,101880.08
2018-09-27T12:16:53.970Z,101875.19
2018-09-27T12:19:24.165Z,101864.16
2018-09-27T12:21:54.120Z,101865.08
2018-09-27T12:24:23.570Z,101865.64
2018-09-27T12:26:53.252Z,101865.84
2018-09-27T12:29:22.742Z,101851.75
2018-09-27T12:31:52.232Z,101854.95
2018-09-27T12:34:22.173Z,101847.86
2018-09-27T12:36:51.441Z,101839.98
2018-09-27T12:39:20.675Z,101834.63
2018-09-27T12:41:50.557Z,101827.91
2018-09-27T12:44:19.998Z,101824.38
2018-09-27T12:46:49.726Z,101816.80
2018-09-27T12:49:19.526Z,101812.20
2018-09-27T12:51:49.062Z,101806.55
2018-09-27T12:54:19.193Z,101806.78
2018-09-27T12:56:48.737Z,101798.59
2018-09-27T12:59:18.022Z,101792.03
2018-09-27T13:01:47.607Z,101789.43
2018-09-27T13:04:17.476Z,101780.84
2018-09-27T13:06:47.138Z,101778.89
2018-09-27T13:09:17.203Z,101774.55
2018-09-27T13:11:46.747Z,101773.34
2018-09-27T13:14:16.543Z,101770.73
2018-09-27T13:16:45.804Z,101765.59
2018-09-27T13:19:15.046Z,101763.56
2018-09-27T13:21:44.438Z,101756.51
2018-09-27T13:24:14.671Z,101745.52
2018-09-27T13:26:44.299Z,101746.72
2018-09-27T13:29:14.828Z,101738.94
2018-09-27T13:31:44.264Z,101740.70
2018-09-27T13:34:13.943Z,101730.72
2018-09-27T13:36:43.498Z,101717.97
2018-09-27T13:39:13.062Z,101715.22
2018-09-27T13:41:42.903Z,101709.11
2018-09-27T13:44:12.389Z,101700.93
2018-09-27T13:46:41.930Z,101697.97
2018-09-27T13:49:11.547Z,101688.09
2018-09-27T13:51:41.837Z,101684.66
2018-09-27T13:54:12.222Z,101683.55
2018-09-27T13:56:41.816Z,101684.79
2018-09-27T13:59:11.690Z,101669.37
2018-09-27T14:01:41.771Z,101678.84
2018-09-27T14:04:11.527Z,101668.59
2018-09-27T14:06:41.036Z,101659.77
2018-09-27T14:09:11.114Z,101650.67
2018-09-27T14:11:40.623Z,101655.38
2018-09-27T14:14:10.769Z,101641.45
2018-09-27T14:16:40.443Z,101641.54
2018-09-27T14:19:10.059Z,101640.23
2018-09-27T14:21:39.694Z,101635.55
2018-09-27T14:24:09.402Z,101629.91
2018-09-27T14:26:38.927Z,101629.79
2018-09-27T14:29:08.409Z,101625.47
2018-09-27T14:31:38.054Z,101615.56
2018-09-27T14:34:07.951Z,101612.10
2018-09-27T14:36:37.846Z,101608.41
2018-09-27T14:39:09.615Z,101614.93
2018-09-27T14:41:39.778Z,101610.38
2018-09-27T14:44:09.130Z,101599.55
2018-09-27T14:46:38.391Z,101604.58
2018-09-27T14:49:08.300Z,101596.73
2018-09-27T14:51:38.019Z,101592.84
2018-09-27T14:54:08.012Z,101595.78
2018-09-27T14:56:38.284Z,101595.42
2018-09-27T14:59:07.999Z,101590.51
2018-09-27T15:01:37.304Z,101584.66
2018-09-27T15:04:07.802Z,101586.00
2018-09-27T15:06:37.317Z,101574.58
2018-09-27T15:09:09.328Z,101580.73
2018-09-27T15:11:39.112Z,101565.83
2018-09-27T15:14:08.762Z,101570.45
2018-09-27T15:16:38.355Z,101570.52
2018-09-27T15:19:08.106Z,101572.55
2018-09-27T15:21:37.624Z,101565.64
2018-09-27T15:24:07.525Z,101561.14
2018-09-27T15:26:37.039Z,101556.16
2018-09-27T15:29:06.947Z,101553.11
2018-09-27T15:31:36.676Z,101551.19
2018-09-27T15:34:06.410Z,101547.06
2018-09-27T15:36:36.584Z,101537.16
2018-09-27T15:39:07.679Z,101540.55
2018-09-27T15:41:37.164Z,101534.75
2018-09-27T15:44:07.712Z,101529.52
2018-09-27T15:46:37.230Z,101530.39
2018-09-27T15:49:06.670Z,101523.73
2018-09-27T15:51:36.215Z,101530.66
2018-09-27T15:54:05.884Z,101520.67
2018-09-27T15:56:35.148Z,101512.05
2018-09-27T15:59:04.900Z,101515.06
2018-09-27T16:01:35.847Z,101513.35
2018-09-27T16:04:05.614Z,101510.98
2018-09-27T16:06:35.889Z,101509.88
2018-09-27T16:11:34.754Z,101506.33
2018-09-27T16:14:04.783Z,101505.26
2018-09-27T16:16:34.843Z,101503.74
2018-09-27T16:19:04.260Z,101502.19
2018-09-27T16:21:34.283Z,101498.66
2018-09-27T16:24:04.490Z,101490.84
2018-09-27T16:26:34.889Z,101493.22
2018-09-27T16:29:04.161Z,101487.80
2018-09-27T16:31:34.361Z,101495.08
2018-09-27T16:34:04.342Z,101493.67
2018-09-27T16:36:34.745Z,101490.08
2018-09-27T16:39:06.663Z,101489.81
2018-09-27T16:41:37.021Z,101488.24
2018-09-27T16:44:06.852Z,101487.70
2018-09-27T16:46:37.630Z,101487.37
2018-09-27T16:49:07.374Z,101484.80
2018-09-27T16:51:37.607Z,101483.16
2018-09-27T16:54:07.159Z,101488.36
2018-09-27T16:56:36.855Z,101480.38
2018-09-27T16:59:06.354Z,101487.14
2018-09-27T17:01:36.604Z,101475.45
2018-09-27T17:04:06.960Z,101480.45
2018-09-27T17:06:38.218Z,101477.00
2018-09-27T17:09:09.027Z,101480.03
2018-09-27T17:11:38.582Z,101483.92
2018-09-27T17:14:08.291Z,101479.67
2018-09-27T17:16:37.897Z,101486.31
2018-09-27T17:19:07.907Z,101488.48
2018-09-27T17:21:37.588Z,101489.84
2018-09-27T17:24:07.895Z,101486.59
2018-09-27T17:26:38.142Z,101485.64
2018-09-27T17:29:08.012Z,101489.17
2018-09-27T17:31:37.537Z,101488.00
2018-09-27T17:34:08.044Z,101480.31
2018-09-27T17:36:37.572Z,101491.40
2018-09-27T17:39:08.135Z,101491.22
2018-09-27T17:41:37.862Z,101488.56
2018-09-27T17:44:07.899Z,101498.80
2018-09-27T17:46:38.262Z,101488.70
2018-09-27T17:49:07.927Z,101490.05
2018-09-27T17:51:37.841Z,101496.92
2018-09-27T17:54:07.557Z,101503.55
2018-09-27T17:56:36.907Z,101507.89
2018-09-27T17:59:08.096Z,101503.91
2018-09-27T18:01:37.548Z,101514.40
2018-09-27T18:04:06.849Z,101515.35
2018-09-27T18:06:36.155Z,101520.34
2018-09-27T18:09:08.782Z,101527.47
2018-09-27T18:11:38.892Z,101524.70
2018-09-27T18:14:08.318Z,101523.74
2018-09-27T18:16:38.449Z,101520.28
2018-09-27T18:19:08.052Z,101525.71
2018-09-27T18:21:38.138Z,101527.16
2018-09-27T18:24:07.982Z,101524.88
2018-09-27T18:26:37.873Z,101524.64
2018-09-27T18:29:07.676Z,101528.37
2018-09-27T18:31:37.852Z,101531.79
2018-09-27T18:34:08.058Z,101531.28
2018-09-27T18:36:38.113Z,101530.86
2018-09-27T18:39:10.222Z,101535.38
2018-09-27T18:41:40.680Z,101526.25
2018-09-27T18:44:11.050Z,101527.67
2018-09-27T18:46:41.652Z,101529.20
2018-09-27T18:49:17.833Z,101531.94
2018-09-27T18:51:47.852Z,101529.66
2018-09-27T18:54:17.140Z,101537.03
2018-09-27T18:56:47.463Z,101529.84
2018-09-27T18:59:17.208Z,101529.55
2018-09-27T19:01:46.848Z,101537.49
2018-09-27T19:04:16.423Z,101530.40
2018-09-27T19:06:45.932Z,101532.39
2018-09-27T19:09:16.631Z,101536.95
2018-09-27T19:11:47.320Z,101535.22
2018-09-27T19:14:16.947Z,101537.55
2018-09-27T19:16:46.928Z,101534.42
2018-09-27T19:19:17.551Z,101532.74
2018-09-27T19:21:48.063Z,101534.73
2018-09-27T19:24:18.033Z,101535.23
2018-09-27T19:26:48.149Z,101533.11
2018-09-27T19:29:19.058Z,101535.30
2018-09-27T19:31:48.562Z,101533.45
2018-09-27T19:34:18.269Z,101522.80
2018-09-27T19:36:48.196Z,101526.50
2018-09-27T19:39:17.518Z,101527.25
2018-09-27T19:41:47.257Z,101529.97
2018-09-27T19:44:17.090Z,101539.38
2018-09-27T19:46:47.049Z,101514.59
2018-09-27T19:49:16.512Z,101537.73
2018-09-27T19:51:46.255Z,101533.11
2018-09-27T19:54:16.311Z,101534.06
2018-09-27T19:56:46.087Z,101533.61
2018-09-27T19:59:15.763Z,101534.77
2018-09-27T20:01:45.299Z,101530.77
2018-09-27T20:04:15.291Z,101526.62
2018-09-27T20:06:45.035Z,101531.51
2018-09-27T20:09:14.807Z,101529.43
2018-09-27T20:11:44.752Z,101530.28
2018-09-27T20:14:15.090Z,101529.44
2018-09-27T20:16:44.993Z,101526.73
2018-09-27T20:19:14.446Z,101533.97
2018-09-27T20:21:44.187Z,101531.59
2018-09-27T20:24:13.887Z,101537.41
2018-09-27T20:26:43.445Z,101541.70
2018-09-27T20:29:13.504Z,101540.42
2018-09-27T20:31:43.207Z,101538.87
2018-09-27T20:34:12.811Z,101545.27
2018-09-27T20:36:42.483Z,101552.01
2018-09-27T20:39:13.091Z,101546.84
2018-09-27T20:41:42.931Z,101541.81
2018-09-27T20:44:12.783Z,101551.85
2018-09-27T20:46:42.550Z,101551.17
2018-09-27T20:49:12.040Z,101553.88
2018-09-27T20:51:41.740Z,101554.92
2018-09-27T20:54:11.531Z,101551.30
2018-09-27T20:56:41.573Z,101552.73
2018-09-27T20:59:11.796Z,101561.34
2018-09-27T21:01:41.766Z,101559.67
2018-09-27T21:04:11.284Z,101560.12
2018-09-27T21:06:41.319Z,101560.22
2018-09-27T21:09:12.389Z,101554.45
2018-09-27T21:11:42.391Z,101558.78
2018-09-27T21:14:12.226Z,101553.17
2018-09-27T21:16:42.155Z,101550.28
2018-09-27T21:19:11.640Z,101547.42
2018-09-27T21:21:41.330Z,101546.27
2018-09-27T21:24:10.812Z,101546.44
2018-09-27T21:26:40.291Z,101544.95
2018-09-27T21:29:09.795Z,101537.07
2018-09-27T21:31:39.107Z,101542.97
2018-09-27T21:34:08.876Z,101549.58
2018-09-27T21:36:38.121Z,101549.23
2018-09-27T21:39:08.399Z,101553.50
2018-09-27T21:41:37.691Z,101552.75
2018-09-27T21:44:07.449Z,101557.39
2018-09-27T21:46:36.911Z,101558.81
2018-09-27T21:49:06.488Z,101561.47
2018-09-27T21:51:36.095Z,101555.42
2018-09-27T21:54:06.285Z,101552.83
2018-09-27T21:56:36.715Z,101550.89
2018-09-27T21:59:05.972Z,101544.55
2018-09-27T22:01:36.218Z,101544.89
2018-09-27T22:04:05.755Z,101545.45
2018-09-27T22:06:35.359Z,101541.45
2018-09-27T22:09:07.121Z,101543.48
2018-09-27T22:11:36.830Z,101544.31
2018-09-27T22:14:06.530Z,101543.54
2018-09-27T22:16:36.398Z,101542.59
2018-09-27T22:19:05.858Z,101543.64
2018-09-27T22:21:35.339Z,101542.34
2018-09-27T22:24:04.854Z,101543.61
2018-09-27T22:26:34.112Z,101545.58
2018-09-27T22:29:04.222Z,101543.91
2018-09-27T22:31:33.470Z,101550.95
2018-09-27T22:34:03.338Z,101554.81
2018-09-27T22:36:32.830Z,101552.06
2018-09-27T22:39:02.427Z,101554.27
2018-09-27T22:41:32.013Z,101551.23
2018-09-27T22:44:01.587Z,101556.91
2018-09-27T22:46:31.024Z,101556.05
2018-09-27T22:49:00.505Z,101546.29
2018-09-27T22:51:30.232Z,101557.02
2018-09-27T22:53:59.935Z,101554.98
2018-09-27T22:56:29.522Z,101558.97
2018-09-27T22:58:58.944Z,101561.40
2018-09-27T23:01:28.924Z,101564.52
2018-09-27T23:03:59.382Z,101562.23
2018-09-27T23:06:29.402Z,101560.05
2018-09-27T23:08:59.021Z,101556.94
2018-09-27T23:11:33.666Z,101553.66
2018-09-27T23:14:05.151Z,101559.83
2018-09-27T23:16:35.295Z,101553.92
2018-09-27T23:19:04.689Z,101557.80
2018-09-27T23:21:34.751Z,101555.75
2018-09-27T23:24:04.460Z,101553.70
2018-09-27T23:26:34.139Z,101552.98
2018-09-27T23:29:04.131Z,101551.16
2018-09-27T23:31:34.139Z,101553.22
2018-09-27T23:34:03.720Z,101543.80
2018-09-27T23:36:33.390Z,101551.03
2018-09-27T23:39:03.491Z,101541.25
2018-09-27T23:41:33.219Z,101546.47
2018-09-27T23:44:02.750Z,101547.38
2018-09-27T23:46:32.810Z,101551.81
2018-09-27T23:49:03.097Z,101556.88
2018-09-27T23:51:32.695Z,101546.38
2018-09-27T23:54:02.654Z,101556.83
2018-09-27T23:56:32.518Z,101553.47
2018-09-27T23:59:02.875Z,101550.81
